sensor_id;sensor_type;location;lat;lon;timestamp;pressure;altitude;pressure_sealevel;temperature;humidity
21640;BME280;10981;45.462;10.974;2022-08-21T00:00:43;100252.53;;;20.73;100.00
21640;BME280;10981;45.462;10.974;2022-08-21T00:03:12;100254.34;;;20.66;100.00
21640;BME280;10981;45.462;10.974;2022-08-21T00:05:45;100252.06;;;20.69;100.00
21640;BME280;10981;45.462;10.974;2022-08-21T00:08:13;100245.78;;;20.70;100.00
21640;BME280;10981;45.462;10.974;2022-08-21T00:10:43;100245.56;;;20.72;100.00
21640;BME280;10981;45.462;10.974;2022-08-21T00:13:12;100248.63;;;20.76;100.00
21640;BME280;10981;45.462;10.974;2022-08-21T00:15:46;100243.75;;;20.79;100.00
21640;BME280;10981;45.462;10.974;2022-08-21T00:18:15;100244.97;;;20.83;100.00
21640;BME280;10981;45.462;10.974;2022-08-21T00:20:46;100251.13;;;20.90;100.00
21640;BME280;10981;45.462;10.974;2022-08-21T00:23:15;100251.53;;;20.87;100.00
21640;BME280;10981;45.462;10.974;2022-08-21T00:25:44;100253.16;;;20.75;100.00
21640;BME280;10981;45.462;10.974;2022-08-21T00:28:13;100251.03;;;20.64;100.00
21640;BME280;10981;45.462;10.974;2022-08-21T00:30:42;100253.06;;;20.55;100.00
21640;BME280;10981;45.462;10.974;2022-08-21T00:33:11;100248.34;;;20.50;100.00
21640;BME280;10981;45.462;10.974;2022-08-21T00:35:41;100250.56;;;20.40;100.00
21640;BME280;10981;45.462;10.974;2022-08-21T00:38:10;100244.84;;;20.36;100.00
21640;BME280;10981;45.462;10.974;2022-08-21T00:40:50;100255.28;;;20.38;100.00
21640;BME280;10981;45.462;10.974;2022-08-21T00:43:21;100247.09;;;20.39;100.00
21640;BME280;10981;45.462;10.974;2022-08-21T00:45:50;100250.56;;;20.40;100.00
21640;BME280;10981;45.462;10.974;2022-08-21T00:48:19;100250.56;;;20.40;100.00
21640;BME280;10981;45.462;10.974;2022-08-21T00:51:14;100237.28;;;20.40;100.00
21640;BME280;10981;45.462;10.974;2022-08-21T00:53:45;100233.59;;;20.41;100.00
21640;BME280;10981;45.462;10.974;2022-08-21T00:56:21;100225.47;;;20.49;100.00
21640;BME280;10981;45.462;10.974;2022-08-21T00:58:54;100223.03;;;20.54;100.00
21640;BME280;10981;45.462;10.974;2022-08-21T01:01:24;100222.41;;;20.59;100.00
21640;BME280;10981;45.462;10.974;2022-08-21T01:03:52;100223.66;;;20.63;100.00
21640;BME280;10981;45.462;10.974;2022-08-21T01:06:21;100227.34;;;20.62;100.00
21640;BME280;10981;45.462;10.974;2022-08-21T01:08:49;100225.88;;;20.53;100.00
21640;BME280;10981;45.462;10.974;2022-08-21T01:11:18;100226.06;;;20.45;100.00
21640;BME280;10981;45.462;10.974;2022-08-21T01:13:48;100233.41;;;20.42;100.00
21640;BME280;10981;45.462;10.974;2022-08-21T01:16:20;100230.72;;;20.36;100.00
21640;BME280;10981;45.462;10.974;2022-08-21T01:18:49;100231.78;;;20.48;100.00
21640;BME280;10981;45.462;10.974;2022-08-21T01:21:24;100231.38;;;20.38;100.00
21640;BME280;10981;45.462;10.974;2022-08-21T01:23:57;100226.25;;;20.36;100.00
21640;BME280;10981;45.462;10.974;2022-08-21T01:26:29;100231.06;;;20.19;100.00
21640;BME280;10981;45.462;10.974;2022-08-21T01:29:54;100224.31;;;20.17;100.00
21640;BME280;10981;45.462;10.974;2022-08-21T01:32:18;100231.50;;;20.16;100.00
21640;BME280;10981;45.462;10.974;2022-08-21T01:34:49;100229.63;;;20.17;100.00
21640;BME280;10981;45.462;10.974;2022-08-21T01:37:19;100226.09;;;19.96;100.00
21640;BME280;10981;45.462;10.974;2022-08-21T01:39:47;100232.16;;;19.83;100.00
21640;BME280;10981;45.462;10.974;2022-08-21T01:42:16;100227.78;;;19.75;100.00
21640;BME280;10981;45.462;10.974;2022-08-21T01:44:44;100227.59;;;19.77;100.00
21640;BME280;10981;45.462;10.974;2022-08-21T01:47:15;100221.84;;;19.73;100.00
21640;BME280;10981;45.462;10.974;2022-08-21T01:49:45;100223.47;;;19.68;100.00
21640;BME280;10981;45.462;10.974;2022-08-21T01:52:14;100219.16;;;19.67;100.00
21640;BME280;10981;45.462;10.974;2022-08-21T01:54:43;100222.25;;;19.70;100.00
21640;BME280;10981;45.462;10.974;2022-08-21T01:57:22;100214.09;;;19.72;100.00
21640;BME280;10981;45.462;10.974;2022-08-21T01:59:53;100212.88;;;19.74;100.00
21640;BME280;10981;45.462;10.974;2022-08-21T02:02:22;100204.50;;;19.77;100.00
21640;BME280;10981;45.462;10.974;2022-08-21T02:04:50;100202.69;;;19.78;100.00
21640;BME280;10981;45.462;10.974;2022-08-21T02:07:19;100199.09;;;19.86;100.00
21640;BME280;10981;45.462;10.974;2022-08-21T02:09:47;100203.41;;;19.93;100.00
21640;BME280;10981;45.462;10.974;2022-08-21T02:12:15;100198.31;;;19.99;100.00
21640;BME280;10981;45.462;10.974;2022-08-21T02:14:43;100196.53;;;20.06;100.00
21640;BME280;10981;45.462;10.974;2022-08-21T02:17:15;100190.59;;;20.11;100.00
21640;BME280;10981;45.462;10.974;2022-08-21T02:19:43;100190.81;;;20.16;100.00
21640;BME280;10981;45.462;10.974;2022-08-21T02:22:14;100193.69;;;20.14;100.00
21640;BME280;10981;45.462;10.974;2022-08-21T02:24:42;100185.50;;;20.16;100.00
21640;BME280;10981;45.462;10.974;2022-08-21T02:27:25;100190.38;;;20.12;100.00
21640;BME280;10981;45.462;10.974;2022-08-21T02:29:58;100187.34;;;20.08;100.00
21640;BME280;10981;45.462;10.974;2022-08-21T02:32:26;100190.16;;;20.07;100.00
21640;BME280;10981;45.462;10.974;2022-08-21T02:34:54;100183.47;;;20.11;100.00
21640;BME280;10981;45.462;10.974;2022-08-21T02:37:23;100184.69;;;20.15;100.00
21640;BME280;10981;45.462;10.974;2022-08-21T02:39:51;100184.50;;;20.17;100.00
21640;BME280;10981;45.462;10.974;2022-08-21T02:42:20;100180.63;;;20.19;100.00
21640;BME280;10981;45.462;10.974;2022-08-21T02:44:49;100168.97;;;20.20;100.00
21640;BME280;10981;45.462;10.974;2022-08-21T02:47:17;100164.91;;;20.24;100.00
21640;BME280;10981;45.462;10.974;2022-08-21T02:49:45;100171.66;;;20.27;100.00
21640;BME280;10981;45.462;10.974;2022-08-21T02:52:13;100173.06;;;20.23;100.00
21640;BME280;10981;45.462;10.974;2022-08-21T02:54:42;100167.13;;;20.21;100.00
21640;BME280;10981;45.462;10.974;2022-08-21T02:57:10;100172.06;;;20.17;100.00
21640;BME280;10981;45.462;10.974;2022-08-21T02:59:38;100173.50;;;20.20;100.00
21640;BME280;10981;45.462;10.974;2022-08-21T03:02:08;100175.44;;;19.98;100.00
21640;BME280;10981;45.462;10.974;2022-08-21T03:04:37;100173.09;;;19.81;100.00
21640;BME280;10981;45.462;10.974;2022-08-21T03:07:05;100177.63;;;19.52;100.00
21640;BME280;10981;45.462;10.974;2022-08-21T03:09:38;100181.84;;;19.40;100.00
21640;BME280;10981;45.462;10.974;2022-08-21T03:12:17;100183.06;;;19.37;100.00
21640;BME280;10981;45.462;10.974;2022-08-21T03:14:46;100175.69;;;19.33;100.00
21640;BME280;10981;45.462;10.974;2022-08-21T03:17:14;100175.47;;;19.34;100.00
21640;BME280;10981;45.462;10.974;2022-08-21T03:19:42;100184.34;;;19.48;100.00
21640;BME280;10981;45.462;10.974;2022-08-21T03:22:10;100178.06;;;19.56;100.00
21640;BME280;10981;45.462;10.974;2022-08-21T03:24:39;100178.13;;;19.63;100.00
21640;BME280;10981;45.462;10.974;2022-08-21T03:27:11;100175.06;;;19.66;100.00
21640;BME280;10981;45.462;10.974;2022-08-21T03:29:43;100181.38;;;19.30;100.00
21640;BME280;10981;45.462;10.974;2022-08-21T03:32:11;100187.13;;;19.11;100.00
21640;BME280;10981;45.462;10.974;2022-08-21T03:34:39;100184.00;;;19.01;100.00
21640;BME280;10981;45.462;10.974;2022-08-21T03:37:09;100181.19;;;19.03;100.00
21640;BME280;10981;45.462;10.974;2022-08-21T03:39:38;100186.31;;;19.11;100.00
21640;BME280;10981;45.462;10.974;2022-08-21T03:42:07;100186.38;;;19.18;100.00
21640;BME280;10981;45.462;10.974;2022-08-21T03:44:38;100182.38;;;19.28;100.00
21640;BME280;10981;45.462;10.974;2022-08-21T03:47:07;100177.88;;;19.29;100.00
21640;BME280;10981;45.462;10.974;2022-08-21T03:49:36;100172.22;;;19.32;100.00
21640;BME280;10981;45.462;10.974;2022-08-21T03:52:04;100176.91;;;19.37;100.00
21640;BME280;10981;45.462;10.974;2022-08-21T03:54:33;100167.16;;;19.37;100.00
21640;BME280;10981;45.462;10.974;2022-08-21T03:57:01;100173.50;;;19.43;100.00
21640;BME280;10981;45.462;10.974;2022-08-21T03:59:29;100166.19;;;19.52;100.00
21640;BME280;10981;45.462;10.974;2022-08-21T04:02:02;100173.72;;;19.48;100.00
21640;BME280;10981;45.462;10.974;2022-08-21T04:04:32;100176.47;;;19.33;100.00
21640;BME280;10981;45.462;10.974;2022-08-21T04:07:01;100177.69;;;19.31;100.00
21640;BME280;10981;45.462;10.974;2022-08-21T04:09:30;100179.34;;;19.32;100.00
21640;BME280;10981;45.462;10.974;2022-08-21T04:11:59;100173.91;;;19.40;100.00
21640;BME280;10981;45.462;10.974;2022-08-21T04:14:28;100167.09;;;19.31;100.00
21640;BME280;10981;45.462;10.974;2022-08-21T04:16:56;100173.81;;;19.33;100.00
21640;BME280;10981;45.462;10.974;2022-08-21T04:19:25;100170.59;;;19.38;100.00
21640;BME280;10981;45.462;10.974;2022-08-21T04:21:53;100171.47;;;19.45;100.00
21640;BME280;10981;45.462;10.974;2022-08-21T04:24:22;100164.19;;;19.54;100.00
21640;BME280;10981;45.462;10.974;2022-08-21T04:26:50;100159.31;;;19.57;100.00
21640;BME280;10981;45.462;10.974;2022-08-21T04:29:19;100161.34;;;19.62;100.00
21640;BME280;10981;45.462;10.974;2022-08-21T04:31:48;100163.16;;;19.55;100.00
21640;BME280;10981;45.462;10.974;2022-08-21T04:34:16;100165.84;;;19.62;100.00
21640;BME280;10981;45.462;10.974;2022-08-21T04:36:44;100161.56;;;19.60;100.00
21640;BME280;10981;45.462;10.974;2022-08-21T04:39:13;100167.44;;;19.56;100.00
21640;BME280;10981;45.462;10.974;2022-08-21T04:41:42;100171.50;;;19.52;100.00
21640;BME280;10981;45.462;10.974;2022-08-21T04:44:10;100167.22;;;19.51;100.00
21640;BME280;10981;45.462;10.974;2022-08-21T04:46:39;100174.19;;;19.58;100.00
21640;BME280;10981;45.462;10.974;2022-08-21T04:49:07;100168.06;;;19.58;100.00
21640;BME280;10981;45.462;10.974;2022-08-21T04:51:37;100172.97;;;19.61;100.00
21640;BME280;10981;45.462;10.974;2022-08-21T04:54:13;100168.72;;;19.60;100.00
21640;BME280;10981;45.462;10.974;2022-08-21T04:57:02;100168.50;;;19.62;100.00
21640;BME280;10981;45.462;10.974;2022-08-21T04:59:44;100168.06;;;19.58;100.00
21640;BME280;10981;45.462;10.974;2022-08-21T05:02:16;100179.47;;;19.52;100.00
21640;BME280;10981;45.462;10.974;2022-08-21T05:04:53;100177.25;;;19.55;100.00
21640;BME280;10981;45.462;10.974;2022-08-21T05:07:26;100175.16;;;19.51;100.00
21640;BME280;10981;45.462;10.974;2022-08-21T05:10:10;100182.75;;;19.54;100.00
21640;BME280;10981;45.462;10.974;2022-08-21T05:12:41;100172.31;;;19.52;100.00
21640;BME280;10981;45.462;10.974;2022-08-21T05:15:14;100172.59;;;19.64;100.00
21640;BME280;10981;45.462;10.974;2022-08-21T05:17:43;100182.47;;;19.77;100.00
21640;BME280;10981;45.462;10.974;2022-08-21T05:20:26;100179.28;;;19.88;100.00
21640;BME280;10981;45.462;10.974;2022-08-21T05:22:54;100183.81;;;19.95;100.00
21640;BME280;10981;45.462;10.974;2022-08-21T05:25:23;100183.19;;;19.99;100.00
21640;BME280;10981;45.462;10.974;2022-08-21T05:27:51;100182.63;;;20.11;100.00
21640;BME280;10981;45.462;10.974;2022-08-21T05:30:20;100180.81;;;20.18;100.00
21640;BME280;10981;45.462;10.974;2022-08-21T05:32:48;100173.72;;;20.25;100.00
21640;BME280;10981;45.462;10.974;2022-08-21T05:35:17;100182.72;;;20.37;100.00
21640;BME280;10981;45.462;10.974;2022-08-21T05:37:45;100176.00;;;20.48;100.00
21640;BME280;10981;45.462;10.974;2022-08-21T05:40:14;100179.50;;;20.62;100.00
21640;BME280;10981;45.462;10.974;2022-08-21T05:42:51;100181.78;;;20.79;100.00
21640;BME280;10981;45.462;10.974;2022-08-21T05:45:23;100179.16;;;20.99;100.00
21640;BME280;10981;45.462;10.974;2022-08-21T05:48:23;100177.09;;;21.21;100.00
21640;BME280;10981;45.462;10.974;2022-08-21T05:50:52;100173.38;;;21.42;100.00
21640;BME280;10981;45.462;10.974;2022-08-21T05:53:22;100177.03;;;21.61;100.00
21640;BME280;10981;45.462;10.974;2022-08-21T05:55:52;100177.19;;;21.80;100.00
21640;BME280;10981;45.462;10.974;2022-08-21T05:58:21;100177.28;;;22.05;100.00
21640;BME280;10981;45.462;10.974;2022-08-21T06:00:51;100178.84;;;22.19;100.00
21640;BME280;10981;45.462;10.974;2022-08-21T06:03:26;100173.44;;;22.33;100.00
21640;BME280;10981;45.462;10.974;2022-08-21T06:05:55;100177.47;;;22.49;100.00
21640;BME280;10981;45.462;10.974;2022-08-21T06:08:24;100174.09;;;22.67;100.00
21640;BME280;10981;45.462;10.974;2022-08-21T06:10:54;100178.44;;;22.86;100.00
21640;BME280;10981;45.462;10.974;2022-08-21T06:13:24;100184.66;;;23.06;100.00
21640;BME280;10981;45.462;10.974;2022-08-21T06:18:29;100183.94;;;23.42;100.00
21640;BME280;10981;45.462;10.974;2022-08-21T06:20:57;100180.53;;;23.54;100.00
21640;BME280;10981;45.462;10.974;2022-08-21T06:23:27;100183.78;;;23.74;100.00
21640;BME280;10981;45.462;10.974;2022-08-21T06:26:02;100185.94;;;24.03;100.00
21640;BME280;10981;45.462;10.974;2022-08-21T06:28:31;100190.53;;;24.14;100.00
21640;BME280;10981;45.462;10.974;2022-08-21T06:30:59;100189.66;;;24.32;100.00
21640;BME280;10981;45.462;10.974;2022-08-21T06:33:27;100194.72;;;24.52;100.00
21640;BME280;10981;45.462;10.974;2022-08-21T06:35:59;100189.38;;;25.06;100.00
21640;BME280;10981;45.462;10.974;2022-08-21T06:38:28;100185.66;;;25.55;100.00
21640;BME280;10981;45.462;10.974;2022-08-21T06:40:56;100192.13;;;25.83;100.00
21640;BME280;10981;45.462;10.974;2022-08-21T06:43:25;100188.88;;;26.21;100.00
21640;BME280;10981;45.462;10.974;2022-08-21T06:46:07;100181.34;;;26.81;97.08
21640;BME280;10981;45.462;10.974;2022-08-21T06:48:36;100191.13;;;27.88;91.45
21640;BME280;10981;45.462;10.974;2022-08-21T06:51:04;100187.69;;;28.69;83.23
21640;BME280;10981;45.462;10.974;2022-08-21T06:53:33;100193.22;;;28.90;74.33
21640;BME280;10981;45.462;10.974;2022-08-21T06:56:02;100189.53;;;29.39;76.29
21640;BME280;10981;45.462;10.974;2022-08-21T06:58:30;100200.38;;;30.33;66.59
21640;BME280;10981;45.462;10.974;2022-08-21T07:00:59;100201.06;;;31.68;61.04
21640;BME280;10981;45.462;10.974;2022-08-21T07:03:36;100200.13;;;32.78;54.87
21640;BME280;10981;45.462;10.974;2022-08-21T07:06:06;100203.63;;;33.37;52.56
21640;BME280;10981;45.462;10.974;2022-08-21T07:08:35;100205.34;;;34.15;50.03
21640;BME280;10981;45.462;10.974;2022-08-21T07:11:09;100200.75;;;34.67;50.07
21640;BME280;10981;45.462;10.974;2022-08-21T07:13:38;100202.69;;;33.90;48.87
21640;BME280;10981;45.462;10.974;2022-08-21T07:16:07;100202.94;;;33.70;48.50
21640;BME280;10981;45.462;10.974;2022-08-21T07:18:36;100206.44;;;33.22;49.50
21640;BME280;10981;45.462;10.974;2022-08-21T07:21:06;100210.19;;;33.31;49.06
21640;BME280;10981;45.462;10.974;2022-08-21T07:23:41;100206.50;;;33.17;52.09
21640;BME280;10981;45.462;10.974;2022-08-21T07:26:11;100205.31;;;32.35;48.54
21640;BME280;10981;45.462;10.974;2022-08-21T07:28:39;100195.41;;;31.59;53.36
21640;BME280;10981;45.462;10.974;2022-08-21T07:31:09;100200.06;;;31.33;53.60
21640;BME280;10981;45.462;10.974;2022-08-21T07:33:38;100210.63;;;31.24;54.14
21640;BME280;10981;45.462;10.974;2022-08-21T07:36:07;100212.25;;;31.30;51.91
21640;BME280;10981;45.462;10.974;2022-08-21T07:38:35;100207.88;;;31.40;51.40
21640;BME280;10981;45.462;10.974;2022-08-21T07:41:11;100212.16;;;31.51;52.04
21640;BME280;10981;45.462;10.974;2022-08-21T07:43:41;100213.25;;;31.55;51.37
21640;BME280;10981;45.462;10.974;2022-08-21T07:46:13;100208.69;;;31.45;49.88
21640;BME280;10981;45.462;10.974;2022-08-21T07:48:42;100200.94;;;31.13;46.96
21640;BME280;10981;45.462;10.974;2022-08-21T07:51:13;100201.97;;;31.38;52.15
21640;BME280;10981;45.462;10.974;2022-08-21T07:53:42;100203.50;;;31.65;50.74
21640;BME280;10981;45.462;10.974;2022-08-21T07:56:10;100202.53;;;32.45;50.91
21640;BME280;10981;45.462;10.974;2022-08-21T07:58:39;100202.81;;;33.80;44.26
21640;BME280;10981;45.462;10.974;2022-08-21T08:01:07;100196.09;;;33.97;46.25
21640;BME280;10981;45.462;10.974;2022-08-21T08:03:36;100195.00;;;33.98;44.76
21640;BME280;10981;45.462;10.974;2022-08-21T08:06:05;100188.28;;;34.33;47.36
21640;BME280;10981;45.462;10.974;2022-08-21T08:08:34;100188.66;;;35.20;40.78
21640;BME280;10981;45.462;10.974;2022-08-21T08:11:03;100193.31;;;35.62;40.89
21640;BME280;10981;45.462;10.974;2022-08-21T08:13:31;100187.25;;;35.51;41.90
21640;BME280;10981;45.462;10.974;2022-08-21T08:15:59;100186.34;;;35.14;42.78
21640;BME280;10981;45.462;10.974;2022-08-21T08:18:27;100184.41;;;35.70;41.07
21640;BME280;10981;45.462;10.974;2022-08-21T08:20:56;100191.09;;;36.60;39.61
21640;BME280;10981;45.462;10.974;2022-08-21T08:23:25;100179.94;;;36.70;38.57
21640;BME280;10981;45.462;10.974;2022-08-21T08:25:54;100193.38;;;36.44;38.60
21640;BME280;10981;45.462;10.974;2022-08-21T08:28:22;100186.16;;;36.39;39.02
21640;BME280;10981;45.462;10.974;2022-08-21T08:30:52;100185.38;;;36.02;39.60
21640;BME280;10981;45.462;10.974;2022-08-21T08:33:20;100183.81;;;35.73;40.24
21640;BME280;10981;45.462;10.974;2022-08-21T08:35:51;100179.50;;;35.16;40.56
21640;BME280;10981;45.462;10.974;2022-08-21T08:38:23;100173.03;;;34.51;41.62
21640;BME280;10981;45.462;10.974;2022-08-21T08:41:17;100186.75;;;33.65;42.89
21640;BME280;10981;45.462;10.974;2022-08-21T08:43:53;100177.69;;;33.02;46.51
21640;BME280;10981;45.462;10.974;2022-08-21T08:46:54;100173.44;;;32.61;49.35
21640;BME280;10981;45.462;10.974;2022-08-21T08:49:31;100175.50;;;32.40;46.37
21640;BME280;10981;45.462;10.974;2022-08-21T08:55:16;100176.41;;;32.25;46.66
21640;BME280;10981;45.462;10.974;2022-08-21T08:57:47;100169.66;;;32.57;47.74
21640;BME280;10981;45.462;10.974;2022-08-21T09:00:22;100165.75;;;32.39;46.86
21640;BME280;10981;45.462;10.974;2022-08-21T09:02:54;100169.50;;;32.43;48.74
21640;BME280;10981;45.462;10.974;2022-08-21T09:21:47;100154.63;;;32.80;46.24
21640;BME280;10981;45.462;10.974;2022-08-21T09:27:25;100154.88;;;33.08;51.25
21640;BME280;10981;45.462;10.974;2022-08-21T09:29:54;100154.88;;;33.08;46.65
21640;BME280;10981;45.462;10.974;2022-08-21T09:32:27;100150.03;;;32.75;47.53
21640;BME280;10981;45.462;10.974;2022-08-21T09:40:41;100143.78;;;32.46;47.95
21640;BME280;10981;45.462;10.974;2022-08-21T09:45:46;100139.44;;;32.79;48.47
21640;BME280;10981;45.462;10.974;2022-08-21T09:48:18;100145.84;;;32.88;48.03
21640;BME280;10981;45.462;10.974;2022-08-21T09:50:48;100150.66;;;32.97;46.53
21640;BME280;10981;45.462;10.974;2022-08-21T09:55:53;100147.53;;;32.84;46.72
21640;BME280;10981;45.462;10.974;2022-08-21T09:58:44;100139.22;;;32.75;47.25
21640;BME280;10981;45.462;10.974;2022-08-21T10:01:24;100137.91;;;32.38;49.34
21640;BME280;10981;45.462;10.974;2022-08-21T10:04:03;100138.66;;;32.44;51.27
21640;BME280;10981;45.462;10.974;2022-08-21T10:06:32;100137.19;;;32.57;50.19
21640;BME280;10981;45.462;10.974;2022-08-21T10:09:13;100137.13;;;32.62;50.53
21640;BME280;10981;45.462;10.974;2022-08-21T10:12:07;100137.63;;;32.69;47.94
21640;BME280;10981;45.462;10.974;2022-08-21T10:20:05;100128.34;;;32.46;49.40
21640;BME280;10981;45.462;10.974;2022-08-21T10:25:50;100125.19;;;31.94;48.88
21640;BME280;10981;45.462;10.974;2022-08-21T10:42:42;100117.53;;;32.46;48.81
21640;BME280;10981;45.462;10.974;2022-08-21T10:48:04;100117.47;;;32.51;47.07
21640;BME280;10981;45.462;10.974;2022-08-21T10:56:21;100115.03;;;33.33;43.27
21640;BME280;10981;45.462;10.974;2022-08-21T11:01:46;100116.63;;;33.09;46.46
21640;BME280;10981;45.462;10.974;2022-08-21T11:07:33;100108.78;;;32.84;47.08
21640;BME280;10981;45.462;10.974;2022-08-21T11:10:23;100101.94;;;32.91;44.33
21640;BME280;10981;45.462;10.974;2022-08-21T11:13:01;100102.06;;;33.24;46.12
21640;BME280;10981;45.462;10.974;2022-08-21T11:18:32;100086.31;;;33.70;44.69
21640;BME280;10981;45.462;10.974;2022-08-21T11:21:25;100093.97;;;33.49;44.62
21640;BME280;10981;45.462;10.974;2022-08-21T11:26:45;100076.88;;;33.67;43.77
21640;BME280;10981;45.462;10.974;2022-08-21T11:29:26;100082.84;;;33.88;45.23
21640;BME280;10981;45.462;10.974;2022-08-21T11:50:50;100069.06;;;34.51;38.53
21640;BME280;10981;45.462;10.974;2022-08-21T11:53:25;100065.91;;;34.44;41.12
21640;BME280;10981;45.462;10.974;2022-08-21T12:01:55;100054.38;;;34.52;41.81
21640;BME280;10981;45.462;10.974;2022-08-21T12:04:30;100053.16;;;34.58;38.56
21640;BME280;10981;45.462;10.974;2022-08-21T12:07:27;100046.63;;;34.73;39.29
21640;BME280;10981;45.462;10.974;2022-08-21T12:09:58;100047.94;;;34.29;38.26
21640;BME280;10981;45.462;10.974;2022-08-21T12:12:33;100042.38;;;34.39;42.65
21640;BME280;10981;45.462;10.974;2022-08-21T12:18:28;100040.34;;;35.28;40.15
21640;BME280;10981;45.462;10.974;2022-08-21T12:26:34;100033.19;;;35.92;38.72
21640;BME280;10981;45.462;10.974;2022-08-21T12:29:12;100032.44;;;35.77;38.17
21640;BME280;10981;45.462;10.974;2022-08-21T12:31:51;100029.75;;;36.00;38.97
21640;BME280;10981;45.462;10.974;2022-08-21T12:34:22;100023.53;;;35.86;40.82
21640;BME280;10981;45.462;10.974;2022-08-21T12:36:59;100020.97;;;35.80;37.48
21640;BME280;10981;45.462;10.974;2022-08-21T12:39:32;100016.22;;;35.49;38.18
21640;BME280;10981;45.462;10.974;2022-08-21T12:42:20;100015.75;;;35.93;38.44
21640;BME280;10981;45.462;10.974;2022-08-21T12:45:02;100008.56;;;35.97;37.47
21640;BME280;10981;45.462;10.974;2022-08-21T12:47:45;100009.25;;;35.80;38.20
21640;BME280;10981;45.462;10.974;2022-08-21T12:50:21;100012.50;;;36.13;38.20
21640;BME280;10981;45.462;10.974;2022-08-21T12:55:48;100009.31;;;35.66;37.27
21640;BME280;10981;45.462;10.974;2022-08-21T12:58:24;100004.19;;;35.64;37.07
21640;BME280;10981;45.462;10.974;2022-08-21T13:01:07;100006.59;;;36.11;36.08
21640;BME280;10981;45.462;10.974;2022-08-21T13:03:40;100006.66;;;35.97;37.02
21640;BME280;10981;45.462;10.974;2022-08-21T13:06:15;100000.06;;;36.21;36.42
21640;BME280;10981;45.462;10.974;2022-08-21T13:08:45;100001.63;;;36.45;38.05
21640;BME280;10981;45.462;10.974;2022-08-21T13:11:18;100005.03;;;36.51;34.96
21640;BME280;10981;45.462;10.974;2022-08-21T13:14:02;99995.84;;;36.46;36.72
21640;BME280;10981;45.462;10.974;2022-08-21T13:16:32;99990.28;;;35.66;36.59
21640;BME280;10981;45.462;10.974;2022-08-21T13:19:06;99989.97;;;35.08;35.98
21640;BME280;10981;45.462;10.974;2022-08-21T13:21:40;99986.25;;;35.41;36.46
21640;BME280;10981;45.462;10.974;2022-08-21T13:27:02;99985.97;;;35.42;37.15
21640;BME280;10981;45.462;10.974;2022-08-21T13:29:33;99981.63;;;35.64;37.01
21640;BME280;10981;45.462;10.974;2022-08-21T13:32:16;99980.50;;;35.88;39.23
21640;BME280;10981;45.462;10.974;2022-08-21T13:34:47;99975.59;;;36.30;36.82
21640;BME280;10981;45.462;10.974;2022-08-21T13:37:23;99978.59;;;36.60;38.32
21640;BME280;10981;45.462;10.974;2022-08-21T13:39:53;99981.56;;;36.98;37.45
21640;BME280;10981;45.462;10.974;2022-08-21T13:42:21;99981.31;;;36.51;35.54
21640;BME280;10981;45.462;10.974;2022-08-21T13:44:52;99976.69;;;36.20;37.06
21640;BME280;10981;45.462;10.974;2022-08-21T13:47:21;99974.34;;;36.36;36.01
21640;BME280;10981;45.462;10.974;2022-08-21T13:49:52;99971.50;;;36.50;36.53
21640;BME280;10981;45.462;10.974;2022-08-21T13:52:26;99980.97;;;36.53;36.18
21640;BME280;10981;45.462;10.974;2022-08-21T13:55:11;99967.97;;;36.41;36.71
21640;BME280;10981;45.462;10.974;2022-08-21T13:57:40;99974.53;;;36.40;35.19
21640;BME280;10981;45.462;10.974;2022-08-21T14:00:34;99976.41;;;36.30;35.42
21640;BME280;10981;45.462;10.974;2022-08-21T14:03:07;99971.34;;;35.61;37.83
21640;BME280;10981;45.462;10.974;2022-08-21T14:05:45;99961.91;;;35.22;36.68
21640;BME280;10981;45.462;10.974;2022-08-21T14:08:36;99961.31;;;35.25;37.50
21640;BME280;10981;45.462;10.974;2022-08-21T14:11:09;99960.38;;;35.07;37.93
21640;BME280;10981;45.462;10.974;2022-08-21T14:13:42;99949.81;;;34.91;37.22
21640;BME280;10981;45.462;10.974;2022-08-21T14:16:14;99949.56;;;34.65;38.00
21640;BME280;10981;45.462;10.974;2022-08-21T14:19:34;99944.50;;;34.72;39.87
21640;BME280;10981;45.462;10.974;2022-08-21T14:21:41;99947.06;;;34.54;38.15
21640;BME280;10981;45.462;10.974;2022-08-21T14:26:55;99944.19;;;33.71;41.52
21640;BME280;10981;45.462;10.974;2022-08-21T14:29:26;99932.31;;;33.34;40.35
21640;BME280;10981;45.462;10.974;2022-08-21T14:32:27;99939.28;;;33.21;42.59
21640;BME280;10981;45.462;10.974;2022-08-21T14:34:59;99933.47;;;33.08;41.75
21640;BME280;10981;45.462;10.974;2022-08-21T14:37:30;99934.06;;;32.62;42.94
21640;BME280;10981;45.462;10.974;2022-08-21T14:39:59;99928.91;;;32.41;41.45
21640;BME280;10981;45.462;10.974;2022-08-21T14:42:28;99926.91;;;32.28;42.87
21640;BME280;10981;45.462;10.974;2022-08-21T14:45:00;99923.25;;;32.38;42.80
21640;BME280;10981;45.462;10.974;2022-08-21T14:47:29;99923.13;;;32.24;43.54
21640;BME280;10981;45.462;10.974;2022-08-21T14:49:57;99925.19;;;32.08;43.45
21640;BME280;10981;45.462;10.974;2022-08-21T14:52:26;99916.41;;;31.92;44.03
21640;BME280;10981;45.462;10.974;2022-08-21T14:54:54;99910.91;;;31.73;45.15
21640;BME280;10981;45.462;10.974;2022-08-21T14:57:30;99922.06;;;31.66;43.57
21640;BME280;10981;45.462;10.974;2022-08-21T14:59:59;99913.22;;;31.55;43.39
21640;BME280;10981;45.462;10.974;2022-08-21T15:02:29;99909.97;;;31.53;44.40